Time;durP1;ratioP1;P1;durP2;ratioP2;P2;SDS_P1;SDS_P2;PMS_P1;PMS_P2;Temp;Humidity;BMP_temperature;BMP_pressure;BME280_temperature;BME280_humidity;BME280_pressure;Samples;Min_cycle;Max_cycle;Signal;HPM_P1;HPM_P2
2021/08/01 00:00:28;;;;;;;2.67;2.25;;;;;20.80;100756.00;;;;5048649;28;20204;-79
2021/08/01 00:02:57;;;;;;;2.55;2.35;;;;;20.70;100756.00;;;;5048934;28;20212;-79
2021/08/01 00:05:24;;;;;;;3.53;2.65;;;;;20.70;100758.00;;;;5048922;28;20227;-79
2021/08/01 00:07:52;;;;;;;5.90;3.05;;;;;20.70;100763.00;;;;5049456;28;20196;-79
2021/08/01 00:10:19;;;;;;;2.72;2.53;;;;;20.70;100760.00;;;;5048672;28;20195;-79
2021/08/01 00:12:46;;;;;;;5.00;2.47;;;;;20.70;100757.00;;;;5048789;28;20224;-79
2021/08/01 00:15:15;;;;;;;5.22;2.65;;;;;20.60;100763.00;;;;5048236;28;20661;-79
2021/08/01 00:17:42;;;;;;;3.00;2.28;;;;;20.60;100762.00;;;;5049295;28;20273;-79
2021/08/01 00:20:11;;;;;;;4.95;3.05;;;;;20.60;100765.00;;;;5049631;28;20688;-79
2021/08/01 00:22:38;;;;;;;3.38;2.65;;;;;20.60;100763.00;;;;5048644;28;20195;-78
2021/08/01 00:25:06;;;;;;;2.80;2.58;;;;;20.60;100755.00;;;;5050550;28;20219;-79
2021/08/01 00:27:35;;;;;;;2.97;2.67;;;;;20.60;100761.00;;;;5052596;28;20211;-79
2021/08/01 00:30:03;;;;;;;2.63;2.42;;;;;20.60;100754.00;;;;5052265;28;20420;-79
2021/08/01 00:32:31;;;;;;;3.22;2.92;;;;;20.50;100759.00;;;;5053069;28;20226;-79
2021/08/01 00:34:59;;;;;;;2.80;2.00;;;;;20.50;100750.00;;;;5034099;28;20243;-78
2021/08/01 00:37:26;;;;;;;3.30;3.00;;;;;20.50;100761.00;;;;5032475;28;20581;-79
2021/08/01 00:39:53;;;;;;;3.35;3.05;;;;;20.50;100755.00;;;;5032489;28;20246;-79
2021/08/01 00:42:20;;;;;;;3.25;2.60;;;;;20.50;100756.00;;;;5052866;28;20207;-79
2021/08/01 00:44:47;;;;;;;3.17;2.88;;;;;20.50;100760.00;;;;5053460;28;20203;-79
2021/08/01 00:47:15;;;;;;;4.30;2.80;;;;;20.50;100763.00;;;;5053806;28;20215;-79
2021/08/01 00:49:44;;;;;;;3.15;2.30;;;;;20.40;100757.00;;;;5042384;28;20199;-79
2021/08/01 00:52:12;;;;;;;5.00;3.00;;;;;20.40;100762.00;;;;5032399;28;20254;-79
2021/08/01 00:54:39;;;;;;;2.95;2.47;;;;;20.40;100747.00;;;;5034109;28;20208;-78
2021/08/01 00:57:07;;;;;;;3.83;2.97;;;;;20.40;100746.00;;;;5033496;28;20204;-79
2021/08/01 00:59:35;;;;;;;3.42;2.90;;;;;20.40;100749.00;;;;5038354;28;20207;-79
2021/08/01 01:02:07;;;;;;;3.13;2.80;;;;;20.40;100742.00;;;;5052810;28;20211;-79
2021/08/01 01:04:45;;;;;;;3.78;2.85;;;;;20.30;100738.00;;;;5052665;28;20246;-79
2021/08/01 01:07:20;;;;;;;2.90;2.70;;;;;20.30;100742.00;;;;5052328;28;20203;-79
2021/08/01 01:09:54;;;;;;;3.47;3.10;;;;;20.30;100739.00;;;;5052269;28;20254;-79
2021/08/01 01:12:30;;;;;;;5.50;2.90;;;;;20.30;100735.00;;;;5033336;28;20197;-79
2021/08/01 01:15:01;;;;;;;3.47;2.60;;;;;20.30;100737.00;;;;5033207;28;20204;-79
2021/08/01 01:17:33;;;;;;;3.45;2.65;;;;;20.30;100739.00;;;;5043554;28;20208;-79
2021/08/01 01:20:15;;;;;;;3.33;2.92;;;;;20.20;100734.00;;;;5052846;28;20208;-79
2021/08/01 01:22:52;;;;;;;3.58;3.13;;;;;20.20;100731.00;;;;5052309;28;20286;-79
2021/08/01 01:25:24;;;;;;;4.93;3.03;;;;;20.30;100731.00;;;;5051975;28;20211;-77
2021/08/01 01:28:02;;;;;;;3.17;2.63;;;;;20.30;100732.00;;;;5051613;28;20198;-78
2021/08/01 01:30:32;;;;;;;4.40;3.28;;;;;20.20;100733.00;;;;5051658;28;20669;-78
2021/08/01 01:33:08;;;;;;;3.65;3.10;;;;;20.20;100729.00;;;;5050957;28;20294;-78
2021/08/01 01:35:38;;;;;;;3.67;3.20;;;;;20.20;100728.00;;;;5030327;28;20228;-78
2021/08/01 01:38:08;;;;;;;4.20;3.08;;;;;20.20;100725.00;;;;5031635;28;20600;-78
2021/08/01 01:40:37;;;;;;;3.35;2.78;;;;;20.20;100719.00;;;;5045696;28;20238;-78
2021/08/01 01:43:06;;;;;;;5.43;3.58;;;;;20.20;100723.00;;;;5030728;28;20224;-78
2021/08/01 01:45:35;;;;;;;4.80;2.80;;;;;20.20;100718.00;;;;5031888;28;20220;-78
2021/08/01 01:48:03;;;;;;;4.95;3.13;;;;;20.20;100716.00;;;;5031971;28;20392;-78
2021/08/01 01:50:30;;;;;;;4.18;3.38;;;;;20.20;100716.00;;;;5035348;28;20573;-79
2021/08/01 01:52:58;;;;;;;4.82;2.92;;;;;20.20;100719.00;;;;5051100;28;20220;-79
2021/08/01 01:55:29;;;;;;;4.03;3.13;;;;;20.20;100708.00;;;;5050686;28;20256;-78
2021/08/01 01:57:57;;;;;;;3.60;3.30;;;;;20.20;100701.00;;;;5050685;28;20635;-79
2021/08/01 02:00:25;;;;;;;3.83;3.13;;;;;20.20;100704.00;;;;5050672;28;20199;-79
2021/08/01 02:02:52;;;;;;;5.28;3.05;;;;;20.20;100705.00;;;;5050671;28;20223;-78
2021/08/01 02:05:19;;;;;;;5.65;3.08;;;;;20.20;100708.00;;;;5050429;28;20207;-79
2021/08/01 02:07:46;;;;;;;4.72;3.50;;;;;20.20;100703.00;;;;5049786;28;20204;-79
2021/08/01 02:10:24;;;;;;;3.60;3.00;;;;;20.10;100707.00;;;;5050627;28;20196;-78
2021/08/01 02:12:56;;;;;;;3.65;2.75;;;;;20.20;100711.00;;;;5050285;28;20194;-78
2021/08/01 02:15:27;;;;;;;3.85;3.45;;;;;20.20;100714.00;;;;5046144;28;20195;-79
2021/08/01 02:17:57;;;;;;;5.72;3.38;;;;;20.20;100705.00;;;;5050343;28;20195;-79
2021/08/01 02:20:28;;;;;;;7.50;4.45;;;;;20.20;100710.00;;;;5050123;28;20196;-79
2021/08/01 02:22:58;;;;;;;4.97;3.88;;;;;20.20;100706.00;;;;5049443;28;20207;-79
2021/08/01 02:25:29;;;;;;;3.35;2.85;;;;;20.20;100708.00;;;;5049548;28;20227;-78
2021/08/01 02:27:58;;;;;;;5.95;3.47;;;;;20.20;100707.00;;;;5050025;28;20210;-79
2021/08/01 02:30:27;;;;;;;4.10;3.70;;;;;20.20;100708.00;;;;5050168;28;20252;-79
2021/08/01 02:32:55;;;;;;;4.03;3.30;;;;;20.20;100707.00;;;;5048887;28;20227;-79
2021/08/01 02:35:23;;;;;;;4.35;3.80;;;;;20.20;100702.00;;;;5031850;28;20239;-79
2021/08/01 02:37:53;;;;;;;6.00;3.72;;;;;20.20;100697.00;;;;5029501;28;20212;-79
2021/08/01 02:40:21;;;;;;;5.75;3.60;;;;;20.30;100693.00;;;;5029672;28;20642;-78
2021/08/01 02:42:51;;;;;;;4.32;3.47;;;;;20.30;100690.00;;;;5043543;28;20215;-79
2021/08/01 02:45:20;;;;;;;3.70;3.28;;;;;20.30;100694.00;;;;5050177;28;20192;-79
2021/08/01 02:47:50;;;;;;;4.03;3.10;;;;;20.30;100696.00;;;;5049280;28;20495;-79
2021/08/01 02:50:19;;;;;;;3.80;2.95;;;;;20.30;100695.00;;;;5050311;28;20219;-79
2021/08/01 02:52:54;;;;;;;3.58;3.08;;;;;20.30;100698.00;;;;5048842;28;20200;-79
2021/08/01 02:55:23;;;;;;;4.22;3.58;;;;;20.40;100706.00;;;;5050529;28;20222;-79
2021/08/01 02:57:52;;;;;;;4.10;3.28;;;;;20.40;100699.00;;;;5050203;28;20211;-77
2021/08/01 03:00:22;;;;;;;4.50;3.63;;;;;20.40;100705.00;;;;5049845;28;20204;-77
2021/08/01 03:02:51;;;;;;;3.60;3.20;;;;;20.40;100711.00;;;;5049317;28;20200;-77
2021/08/01 03:05:19;;;;;;;3.92;3.38;;;;;20.40;100710.00;;;;5030697;28;20204;-77
2021/08/01 03:07:48;;;;;;;4.28;2.97;;;;;20.50;100703.00;;;;5029518;28;20208;-77
2021/08/01 03:10:16;;;;;;;5.07;4.25;;;;;20.50;100694.00;;;;5029902;28;20196;-77
2021/08/01 03:12:44;;;;;;;3.97;3.50;;;;;20.50;100699.00;;;;5039768;28;20634;-77
2021/08/01 03:15:12;;;;;;;5.00;3.63;;;;;20.50;100696.00;;;;5044833;28;20613;-77
2021/08/01 03:17:41;;;;;;;9.15;5.07;;;;;20.50;100691.00;;;;5029345;28;20216;-76
2021/08/01 03:20:10;;;;;;;4.80;3.55;;;;;20.60;100691.00;;;;5032442;28;20204;-77
2021/08/01 03:22:38;;;;;;;5.75;3.92;;;;;20.60;100688.00;;;;5049819;28;20207;-77
2021/08/01 03:25:06;;;;;;;5.22;4.22;;;;;20.60;100688.00;;;;5049814;28;20214;-77
2021/08/01 03:27:33;;;;;;;7.05;4.47;;;;;20.60;100694.00;;;;5049670;28;20195;-78
2021/08/01 03:30:00;;;;;;;6.78;4.30;;;;;20.60;100697.00;;;;5048999;28;20191;-78
2021/08/01 03:32:27;;;;;;;5.10;4.57;;;;;20.70;100694.00;;;;5049730;28;20211;-79
2021/08/01 03:34:56;;;;;;;7.00;4.57;;;;;20.70;100684.00;;;;5048781;28;20235;-79
2021/08/01 03:37:26;;;;;;;6.68;4.30;;;;;20.70;100687.00;;;;5038428;28;20197;-80
2021/08/01 03:39:54;;;;;;;5.28;3.80;;;;;20.70;100695.00;;;;5030374;28;20266;-79
2021/08/01 03:42:21;;;;;;;5.07;3.70;;;;;20.80;100690.00;;;;5030765;28;20212;-79
2021/08/01 03:44:48;;;;;;;8.05;4.65;;;;;20.80;100686.00;;;;5029065;28;20200;-79
2021/08/01 03:47:16;;;;;;;5.75;4.72;;;;;20.80;100697.00;;;;5029942;28;20604;-79
2021/08/01 03:49:44;;;;;;;6.25;4.93;;;;;20.80;100702.00;;;;5034459;28;20606;-79
2021/08/01 03:52:12;;;;;;;5.88;4.75;;;;;20.80;100696.00;;;;5049575;28;20200;-79
2021/08/01 03:54:40;;;;;;;4.93;4.25;;;;;20.80;100695.00;;;;5049323;28;20227;-77
2021/08/01 03:57:07;;;;;;;6.90;4.45;;;;;20.90;100694.00;;;;5049846;28;20220;-77
2021/08/01 03:59:36;;;;;;;6.80;4.30;;;;;20.90;100690.00;;;;5049066;28;20188;-78
2021/08/01 04:02:03;;;;;;;5.93;4.95;;;;;20.90;100689.00;;;;5042022;28;20230;-78
2021/08/01 04:04:30;;;;;;;7.00;4.72;;;;;20.90;100683.00;;;;5039313;28;20199;-79
2021/08/01 04:06:58;;;;;;;5.88;4.47;;;;;20.90;100688.00;;;;5048627;28;20769;-78
2021/08/01 04:09:26;;;;;;;5.82;4.05;;;;;20.90;100685.00;;;;5048942;28;20218;-79
2021/08/01 04:11:53;;;;;;;7.43;4.68;;;;;21.00;100685.00;;;;5048239;28;21592;-78
2021/08/01 04:14:21;;;;;;;8.60;4.70;;;;;21.00;100684.00;;;;5048627;28;20230;-78
2021/08/01 04:16:48;;;;;;;5.30;4.22;;;;;21.00;100689.00;;;;5047476;28;20195;-78
2021/08/01 04:19:15;;;;;;;4.93;4.35;;;;;21.00;100687.00;;;;5048984;28;20196;-78
2021/08/01 04:21:43;;;;;;;5.82;4.55;;;;;21.00;100696.00;;;;5046767;28;20241;-79
2021/08/01 04:24:11;;;;;;;5.35;4.82;;;;;21.10;100693.00;;;;5048171;28;20215;-79
2021/08/01 04:26:40;;;;;;;6.47;4.80;;;;;21.10;100700.00;;;;5048482;28;20238;-79
2021/08/01 04:29:08;;;;;;;6.78;4.22;;;;;21.10;100701.00;;;;5047524;28;20208;-79
2021/08/01 04:31:35;;;;;;;6.63;4.95;;;;;21.10;100704.00;;;;5029180;28;20205;-80
2021/08/01 04:34:02;;;;;;;8.88;4.55;;;;;21.10;100699.00;;;;5028069;28;20591;-79
2021/08/01 04:36:29;;;;;;;7.95;4.97;;;;;21.10;100706.00;;;;5027608;28;20199;-80
2021/08/01 04:38:57;;;;;;;6.57;4.63;;;;;21.20;100702.00;;;;5028703;28;20216;-79
2021/08/01 04:41:24;;;;;;;7.13;4.57;;;;;21.20;100710.00;;;;5039390;28;20215;-79
2021/08/01 04:43:52;;;;;;;5.15;4.20;;;;;21.20;100709.00;;;;5048377;28;20712;-79
2021/08/01 04:46:19;;;;;;;7.82;4.40;;;;;21.20;100716.00;;;;5049004;28;20200;-79
2021/08/01 04:48:47;;;;;;;7.10;4.53;;;;;21.30;100715.00;;;;5048260;28;20200;-79
2021/08/01 04:51:14;;;;;;;6.97;4.70;;;;;21.30;100710.00;;;;5047632;28;20658;-79
2021/08/01 04:53:41;;;;;;;8.50;5.22;;;;;21.30;100712.00;;;;5048577;28;20203;-79
2021/08/01 04:56:11;;;;;;;6.43;4.88;;;;;21.30;100720.00;;;;5049119;28;20206;-77
2021/08/01 04:58:39;;;;;;;5.13;4.43;;;;;21.30;100719.00;;;;5048990;28;20207;-78
2021/08/01 05:01:18;;;;;;;5.88;4.55;;;;;21.20;100717.00;;;;5047137;28;20203;-78
2021/08/01 05:03:45;;;;;;;6.18;4.75;;;;;21.30;100714.00;;;;5048661;28;20199;-79
2021/08/01 05:06:12;;;;;;;5.35;4.20;;;;;21.30;100721.00;;;;5048272;28;20269;-79
2021/08/01 05:08:40;;;;;;;7.68;4.95;;;;;21.40;100716.00;;;;5047820;28;20203;-79
2021/08/01 05:11:07;;;;;;;9.38;4.60;;;;;21.40;100722.00;;;;5049002;28;20215;-78
2021/08/01 05:13:35;;;;;;;7.10;4.55;;;;;21.40;100721.00;;;;5051275;28;20558;-78
2021/08/01 05:16:02;;;;;;;10.75;4.30;;;;;21.40;100725.00;;;;5043761;28;20702;-78
2021/08/01 05:18:31;;;;;;;6.55;4.82;;;;;21.40;100725.00;;;;5046518;28;20200;-78
2021/08/01 05:20:58;;;;;;;7.35;4.30;;;;;21.40;100725.00;;;;5049684;28;20678;-78
2021/08/01 05:23:25;;;;;;;6.38;5.10;;;;;21.40;100721.00;;;;5050632;28;20210;-78
2021/08/01 05:25:53;;;;;;;10.73;4.95;;;;;21.40;100721.00;;;;5051062;28;20223;-79
2021/08/01 05:28:20;;;;;;;7.95;5.38;;;;;21.50;100729.00;;;;5051246;28;20199;-79
2021/08/01 05:30:47;;;;;;;9.85;6.05;;;;;21.50;100728.00;;;;5051062;28;20192;-78
2021/08/01 05:33:14;;;;;;;10.88;5.53;;;;;21.50;100732.00;;;;5050521;28;20200;-79
2021/08/01 05:35:43;;;;;;;12.18;5.45;;;;;21.50;100724.00;;;;5050376;28;20231;-79
2021/08/01 05:38:10;;;;;;;10.93;5.63;;;;;21.50;100729.00;;;;5048338;28;20200;-79
2021/08/01 05:40:38;;;;;;;8.50;6.00;;;;;21.50;100718.00;;;;5044928;28;20209;-78
2021/08/01 05:43:05;;;;;;;8.55;6.35;;;;;21.50;100726.00;;;;5049375;28;20199;-78
2021/08/01 05:45:32;;;;;;;11.27;6.07;;;;;21.50;100723.00;;;;5044691;28;20672;-77
2021/08/01 05:47:59;;;;;;;10.45;6.10;;;;;21.50;100724.00;;;;5046308;28;20188;-77
2021/08/01 05:50:26;;;;;;;14.50;11.48;;;;;21.50;100720.00;;;;5048084;28;20447;-77
2021/08/01 05:52:55;;;;;;;11.77;6.80;;;;;21.60;100720.00;;;;5034396;28;20583;-76
2021/08/01 05:55:22;;;;;;;9.70;5.93;;;;;21.70;100727.00;;;;5037341;28;20236;-77
2021/08/01 05:57:50;;;;;;;15.32;6.65;;;;;21.70;100723.00;;;;5030615;28;20550;-77
2021/08/01 06:00:18;;;;;;;7.88;6.68;;;;;21.70;100713.00;;;;5031640;28;20200;-77
2021/08/01 06:02:45;;;;;;;11.57;7.20;;;;;21.70;100720.00;;;;5034619;28;20218;-77
2021/08/01 06:05:12;;;;;;;13.32;7.53;;;;;21.70;100717.00;;;;5032503;28;20192;-77
2021/08/01 06:07:39;;;;;;;15.32;8.27;;;;;21.70;100717.00;;;;5035418;28;20201;-76
2021/08/01 06:10:09;;;;;;;8.27;6.60;;;;;21.70;100714.00;;;;5030917;28;20204;-76
2021/08/01 06:12:37;;;;;;;12.93;7.82;;;;;21.70;100714.00;;;;5032962;28;21116;-77
2021/08/01 06:15:05;;;;;;;10.93;7.72;;;;;21.70;100720.00;;;;5038148;28;20600;-76
2021/08/01 06:17:32;;;;;;;11.18;6.95;;;;;21.70;100716.00;;;;5030845;28;20197;-76
2021/08/01 06:20:00;;;;;;;12.85;7.53;;;;;21.70;100716.00;;;;5030299;28;20189;-76
2021/08/01 06:25:10;;;;;;;12.88;7.72;;;;;21.70;100714.00;;;;5021577;28;20218;-76
2021/08/01 06:27:38;;;;;;;13.02;7.38;;;;;21.70;100726.00;;;;5034958;28;20208;-76
2021/08/01 06:30:06;;;;;;;17.17;8.52;;;;;21.70;100723.00;;;;5030449;28;20203;-77
2021/08/01 06:32:33;;;;;;;14.57;7.95;;;;;21.70;100725.00;;;;5031795;28;20204;-77
2021/08/01 06:35:01;;;;;;;12.48;7.75;;;;;21.70;100723.00;;;;5031884;28;20228;-77
2021/08/01 06:37:28;;;;;;;13.95;8.52;;;;;21.70;100725.00;;;;5032263;28;20670;-77
2021/08/01 06:39:55;;;;;;;13.82;8.70;;;;;21.70;100722.00;;;;5045425;28;20196;-77
2021/08/01 06:42:23;;;;;;;13.07;8.02;;;;;21.70;100726.00;;;;5030571;28;20199;-77
2021/08/01 06:44:51;;;;;;;14.10;8.70;;;;;21.70;100723.00;;;;5029859;28;20658;-78
2021/08/01 06:47:18;;;;;;;11.98;8.70;;;;;21.80;100722.00;;;;5035620;28;20207;-77
2021/08/01 06:49:45;;;;;;;11.45;7.95;;;;;21.80;100725.00;;;;5048204;28;20210;-78
2021/08/01 06:52:12;;;;;;;15.98;9.10;;;;;21.80;100723.00;;;;5042973;28;20196;-76
2021/08/01 06:54:39;;;;;;;13.27;8.65;;;;;21.80;100724.00;;;;5047072;28;20596;-76
2021/08/01 06:57:07;;;;;;;15.75;8.35;;;;;21.80;100730.00;;;;5048993;28;20204;-75
2021/08/01 06:59:35;;;;;;;15.25;8.82;;;;;21.90;100726.00;;;;5049743;28;20580;-76
2021/08/01 07:02:03;;;;;;;17.10;9.25;;;;;21.90;100724.00;;;;5049641;28;20199;-76
2021/08/01 07:04:31;;;;;;;14.65;9.35;;;;;21.90;100728.00;;;;5050004;28;20214;-76
2021/08/01 07:06:58;;;;;;;16.63;9.90;;;;;22.00;100726.00;;;;5049214;28;20669;-76
2021/08/01 07:09:27;;;;;;;15.20;9.25;;;;;22.00;100728.00;;;;5048251;28;20206;-76
2021/08/01 07:11:55;;;;;;;15.30;9.40;;;;;22.00;100727.00;;;;5041661;28;20203;-76
2021/08/01 07:14:22;;;;;;;14.35;9.80;;;;;22.10;100734.00;;;;5041038;28;20207;-77
2021/08/01 07:16:50;;;;;;;20.17;10.23;;;;;22.10;100730.00;;;;5032314;28;20203;-77
2021/08/01 07:19:22;;;;;;;15.07;10.60;;;;;22.10;100729.00;;;;5046842;28;20282;-79
2021/08/01 07:21:50;;;;;;;14.65;8.63;;;;;22.10;100726.00;;;;5039928;28;20679;-76
2021/08/01 07:24:17;;;;;;;15.10;8.90;;;;;22.20;100727.00;;;;5036514;28;20216;-75
2021/08/01 07:26:45;;;;;;;17.33;10.07;;;;;22.20;100722.00;;;;5042946;28;20227;-76
2021/08/01 07:29:12;;;;;;;15.80;9.57;;;;;22.20;100726.00;;;;5030266;28;20283;-75
2021/08/01 07:31:39;;;;;;;13.73;9.02;;;;;22.30;100723.00;;;;5041811;28;20207;-77
2021/08/01 07:34:08;;;;;;;16.20;10.85;;;;;22.30;100722.00;;;;5051269;28;20219;-77
2021/08/01 07:36:35;;;;;;;15.38;9.77;;;;;22.30;100730.00;;;;5032349;28;20219;-77
2021/08/01 07:39:02;;;;;;;18.15;10.20;;;;;22.30;100730.00;;;;5037080;28;20974;-77
2021/08/01 07:41:30;;;;;;;15.82;9.02;;;;;22.40;100735.00;;;;5038643;28;20204;-76
2021/08/01 07:43:57;;;;;;;14.82;9.95;;;;;22.40;100740.00;;;;5041617;28;20290;-77
2021/08/01 07:46:24;;;;;;;15.35;9.90;;;;;22.50;100738.00;;;;5047027;28;20200;-77
2021/08/01 07:48:52;;;;;;;12.45;8.55;;;;;22.50;100740.00;;;;5046934;28;20207;-77
2021/08/01 07:51:20;;;;;;;15.65;9.85;;;;;22.50;100732.00;;;;5028929;28;21017;-77
2021/08/01 07:53:47;;;;;;;14.15;10.18;;;;;22.60;100736.00;;;;5034709;28;20203;-76
2021/08/01 07:56:14;;;;;;;17.63;9.73;;;;;22.60;100734.00;;;;5037995;28;20228;-77
2021/08/01 07:58:42;;;;;;;14.18;8.95;;;;;22.60;100730.00;;;;5044448;28;20199;-77
2021/08/01 08:01:09;;;;;;;12.52;8.60;;;;;22.60;100732.00;;;;5033455;28;20219;-77
2021/08/01 08:03:36;;;;;;;14.98;8.98;;;;;22.70;100732.00;;;;5031656;28;20285;-77
2021/08/01 08:06:05;;;;;;;13.57;8.27;;;;;22.70;100737.00;;;;5035414;28;20216;-77
2021/08/01 08:08:34;;;;;;;15.35;8.43;;;;;22.80;100732.00;;;;5033849;28;20204;-77
2021/08/01 08:11:01;;;;;;;15.57;10.00;;;;;22.80;100734.00;;;;5047445;28;20200;-77
2021/08/01 08:13:29;;;;;;;16.45;8.10;;;;;22.90;100736.00;;;;5035549;28;20200;-77
2021/08/01 08:15:57;;;;;;;12.18;8.23;;;;;22.90;100736.00;;;;5045330;28;20326;-76
2021/08/01 08:18:24;;;;;;;13.02;8.45;;;;;23.00;100734.00;;;;5041670;28;20207;-77
2021/08/01 08:20:51;;;;;;;13.90;8.45;;;;;23.00;100734.00;;;;5036814;28;20207;-77
2021/08/01 08:23:23;;;;;;;14.90;8.57;;;;;23.00;100734.00;;;;5044631;28;20283;-77
2021/08/01 08:25:52;;;;;;;12.98;7.38;;;;;23.10;100735.00;;;;5043602;28;20671;-77
2021/08/01 08:28:19;;;;;;;13.80;9.23;;;;;23.10;100737.00;;;;5036748;28;20266;-76
2021/08/01 08:30:47;;;;;;;14.82;7.97;;;;;23.20;100732.00;;;;5045395;28;20685;-77
2021/08/01 08:33:14;;;;;;;13.15;8.25;;;;;23.30;100735.00;;;;5048879;28;20207;-75
2021/08/01 08:35:41;;;;;;;12.85;8.48;;;;;23.30;100727.00;;;;5046858;28;20840;-75
2021/08/01 08:38:09;;;;;;;10.80;7.35;;;;;23.50;100726.00;;;;5047420;28;20306;-76
2021/08/01 08:40:38;;;;;;;13.05;8.50;;;;;23.60;100727.00;;;;5048025;28;20245;-76
2021/08/01 08:43:07;;;;;;;12.48;6.93;;;;;23.80;100722.00;;;;5045969;28;20220;-77
2021/08/01 08:45:36;;;;;;;11.68;7.07;;;;;23.90;100728.00;;;;5049770;28;20195;-79
2021/08/01 08:48:05;;;;;;;12.23;7.18;;;;;24.00;100720.00;;;;5051167;28;20204;-80
2021/08/01 08:50:35;;;;;;;10.68;7.53;;;;;24.10;100725.00;;;;5051230;28;20222;-79
2021/08/01 08:53:05;;;;;;;12.57;7.82;;;;;24.20;100728.00;;;;5050833;28;20214;-78
2021/08/01 08:55:34;;;;;;;14.10;7.70;;;;;24.20;100731.00;;;;5051620;28;20227;-79
2021/08/01 08:58:04;;;;;;;11.88;7.88;;;;;24.30;100732.00;;;;5047354;28;20661;-79
2021/08/01 09:00:33;;;;;;;19.30;7.75;;;;;24.30;100730.00;;;;5050477;28;20191;-79
2021/08/01 09:03:01;;;;;;;11.48;7.88;;;;;24.30;100733.00;;;;5050570;28;20200;-79
2021/08/01 09:05:28;;;;;;;11.85;8.32;;;;;24.30;100736.00;;;;5050317;28;20202;-78
2021/08/01 09:07:56;;;;;;;10.85;6.78;;;;;24.40;100732.00;;;;5048962;28;20204;-79
2021/08/01 09:10:23;;;;;;;15.75;8.27;;;;;24.50;100732.00;;;;5046507;28;21068;-79
2021/08/01 09:12:53;;;;;;;9.07;6.20;;;;;24.50;100732.00;;;;5049250;28;20203;-78
2021/08/01 09:15:23;;;;;;;9.38;6.38;;;;;24.60;100725.00;;;;5047491;28;20230;-78
2021/08/01 09:17:53;;;;;;;8.45;6.30;;;;;24.60;100733.00;;;;5039739;28;20200;-75
2021/08/01 09:20:22;;;;;;;6.97;5.13;;;;;24.60;100738.00;;;;5047905;28;20238;-78
2021/08/01 09:23:08;;;;;;;7.13;5.22;;;;;24.40;100743.00;;;;5041233;28;20211;-76
2021/08/01 09:25:37;;;;;;;5.72;4.65;;;;;24.50;100752.00;;;;5050269;28;20233;-76
2021/08/01 09:28:10;;;;;;;6.22;5.10;;;;;24.50;100752.00;;;;5050829;28;20204;-77
2021/08/01 09:30:45;;;;;;;6.18;4.47;;;;;24.40;100750.00;;;;5048941;28;20211;-77
2021/08/01 09:33:16;;;;;;;4.28;3.28;;;;;24.50;100755.00;;;;5037354;28;20575;-77
2021/08/01 09:35:44;;;;;;;3.35;2.60;;;;;24.50;100759.00;;;;5048560;28;20258;-76
2021/08/01 09:38:13;;;;;;;2.97;2.78;;;;;24.50;100769.00;;;;5051278;28;20199;-76
2021/08/01 09:40:41;;;;;;;5.32;3.22;;;;;24.60;100776.00;;;;5050450;28;20188;-76
2021/08/01 09:43:10;;;;;;;3.50;2.30;;;;;24.60;100768.00;;;;5049538;28;20200;-78
2021/08/01 09:45:38;;;;;;;1.75;1.65;;;;;24.60;100767.00;;;;5048618;28;20606;-76
2021/08/01 09:48:18;;;;;;;2.15;1.95;;;;;24.60;100771.00;;;;5048876;28;20662;-76
2021/08/01 09:51:02;;;;;;;2.13;1.80;;;;;24.60;100772.00;;;;5031004;28;20200;-77
2021/08/01 09:53:30;;;;;;;2.10;1.90;;;;;24.70;100764.00;;;;5039426;28;20191;-76
2021/08/01 09:56:27;;;;;;;2.30;1.55;;;;;24.70;100771.00;;;;5050554;28;20212;-76
2021/08/01 09:58:55;;;;;;;2.90;2.42;;;;;24.90;100762.00;;;;5047297;28;20192;-76
2021/08/01 10:01:22;;;;;;;6.20;5.63;;;;;24.90;100761.00;;;;5045987;28;20203;-76
2021/08/01 10:03:51;;;;;;;2.88;2.65;;;;;25.00;100765.00;;;;5041492;28;20204;-74
2021/08/01 10:06:19;;;;;;;2.47;2.25;;;;;25.10;100766.00;;;;5047684;28;22184;-75
2021/08/01 10:08:48;;;;;;;3.30;2.88;;;;;25.10;100756.00;;;;5045423;28;20203;-76
2021/08/01 10:11:17;;;;;;;2.15;1.98;;;;;25.20;100760.00;;;;5034725;28;20200;-75
2021/08/01 10:13:45;;;;;;;6.05;2.17;;;;;25.20;100760.00;;;;5049142;28;20404;-75
2021/08/01 10:16:14;;;;;;;2.00;1.90;;;;;25.20;100760.00;;;;5035481;28;20224;-75
2021/08/01 10:18:44;;;;;;;2.65;2.45;;;;;25.30;100763.00;;;;5040201;28;20659;-75
2021/08/01 10:21:16;;;;;;;2.80;2.60;;;;;25.30;100765.00;;;;5039604;28;20199;-75
2021/08/01 10:23:46;;;;;;;1.77;1.67;;;;;25.40;100771.00;;;;5037993;28;20674;-75
2021/08/01 10:26:16;;;;;;;1.88;1.77;;;;;25.50;100756.00;;;;5030673;28;20224;-76
2021/08/01 10:28:49;;;;;;;2.63;2.42;;;;;25.50;100764.00;;;;5045361;28;20241;-75
2021/08/01 10:31:18;;;;;;;1.48;1.38;;;;;25.60;100760.00;;;;5047263;28;20204;-77
2021/08/01 10:33:55;;;;;;;1.55;1.45;;;;;25.70;100762.00;;;;5047188;28;20199;-76
2021/08/01 10:36:28;;;;;;;1.60;1.50;;;;;25.80;100768.00;;;;5035542;28;20246;-75
2021/08/01 10:39:02;;;;;;;8.00;7.40;;;;;25.80;100769.00;;;;5042446;28;20196;-76
2021/08/01 10:41:32;;;;;;;17.00;15.68;;;;;25.90;100773.00;;;;5048825;28;20207;-76
2021/08/01 10:44:06;;;;;;;9.30;8.50;;;;;25.90;100773.00;;;;5042849;28;20199;-77
2021/08/01 10:46:34;;;;;;;4.93;4.43;;;;;25.90;100774.00;;;;5046292;28;20234;-76
2021/08/01 10:49:03;;;;;;;5.88;5.38;;;;;25.80;100767.00;;;;5047037;28;20195;-77
2021/08/01 10:51:32;;;;;;;3.97;3.10;;;;;25.80;100770.00;;;;5037953;28;20203;-77
2021/08/01 10:54:33;;;;;;;3.13;2.83;;;;;25.70;100773.00;;;;5045222;28;20210;-76
2021/08/01 10:57:18;;;;;;;2.78;2.58;;;;;25.70;100772.00;;;;5038194;28;20232;-76
2021/08/01 11:00:05;;;;;;;3.60;3.30;;;;;25.70;100776.00;;;;5032335;28;20297;-75
2021/08/01 11:02:33;;;;;;;1.45;1.35;;;;;25.80;100772.00;;;;5034818;28;20291;-78
2021/08/01 11:05:37;;;;;;;1.20;1.10;;;;;25.70;100779.00;;;;5041185;28;20199;-76
2021/08/01 11:08:06;;;;;;;1.25;1.15;;;;;25.80;100774.00;;;;5030345;28;20219;-79
2021/08/01 11:10:34;;;;;;;1.55;1.17;;;;;25.80;100773.00;;;;5044890;28;20203;-77
2021/08/01 11:13:21;;;;;;;1.23;1.13;;;;;25.80;100774.00;;;;5039835;28;20198;-76
2021/08/01 11:15:49;;;;;;;1.48;0.90;;;;;25.80;100778.00;;;;5046201;28;20230;-76
2021/08/01 11:18:29;;;;;;;1.20;1.10;;;;;25.80;100774.00;;;;5044001;28;20209;-82
2021/08/01 11:20:59;;;;;;;1.58;1.40;;;;;25.80;100780.00;;;;5040775;28;20223;-77
2021/08/01 11:24:00;;;;;;;2.33;1.33;;;;;25.70;100778.00;;;;5038551;28;20627;-77
2021/08/01 11:26:29;;;;;;;1.33;1.23;;;;;25.80;100773.00;;;;5048384;28;20234;-79
2021/08/01 11:29:07;;;;;;;1.33;1.23;;;;;25.80;100778.00;;;;5049232;28;20206;-78
2021/08/01 11:31:34;;;;;;;1.70;1.30;;;;;25.80;100784.00;;;;5047783;28;20198;-78
2021/08/01 11:34:17;;;;;;;1.90;1.63;;;;;25.70;100788.00;;;;5048585;28;20244;-79
2021/08/01 11:36:46;;;;;;;1.45;1.30;;;;;25.70;100779.00;;;;5048286;28;20861;-79
2021/08/01 11:39:15;;;;;;;1.45;1.30;;;;;25.70;100788.00;;;;5049025;28;20203;-78
2021/08/01 11:41:45;;;;;;;1.60;1.50;;;;;25.60;100784.00;;;;5048151;28;20222;-78
2021/08/01 11:44:21;;;;;;;1.85;1.75;;;;;25.50;100792.00;;;;5049188;28;20689;-78
2021/08/01 11:47:04;;;;;;;1.25;1.15;;;;;25.40;100797.00;;;;5048459;28;20282;-78
2021/08/01 11:49:34;;;;;;;1.70;1.60;;;;;25.50;100797.00;;;;5047417;28;20211;-75
2021/08/01 11:52:05;;;;;;;1.50;1.40;;;;;25.40;100801.00;;;;5048188;28;20207;-79
2021/08/01 11:54:33;;;;;;;1.88;1.73;;;;;25.40;100801.00;;;;5029106;28;20185;-76
2021/08/01 11:57:02;;;;;;;1.60;1.50;;;;;25.40;100815.00;;;;5029103;28;20259;-75
2021/08/01 11:59:30;;;;;;;1.50;1.40;;;;;25.30;100823.00;;;;5029326;28;20211;-76
2021/08/01 12:01:59;;;;;;;1.73;1.42;;;;;25.30;100819.00;;;;5028415;28;20200;-76
2021/08/01 12:04:27;;;;;;;1.75;1.35;;;;;25.20;100823.00;;;;5048562;28;20207;-76
2021/08/01 12:06:56;;;;;;;1.45;1.35;;;;;25.10;100826.00;;;;5048535;28;20666;-77
2021/08/01 12:09:26;;;;;;;1.40;1.00;;;;;25.00;100829.00;;;;5048850;28;20226;-77
2021/08/01 12:11:55;;;;;;;1.20;1.10;;;;;25.00;100817.00;;;;5048287;28;20203;-77
2021/08/01 12:14:26;;;;;;;3.38;1.33;;;;;24.90;100817.00;;;;5048871;28;20261;-77
2021/08/01 12:16:59;;;;;;;3.22;1.30;;;;;24.80;100814.00;;;;5036261;28;20220;-77
2021/08/01 12:19:27;;;;;;;1.45;1.33;;;;;24.90;100821.00;;;;5031423;28;20218;-77